Time;durP1;ratioP1;P1;durP2;ratioP2;P2;SDS_P1;SDS_P2;PMS_P1;PMS_P2;Temp;Humidity;BMP_temperature;BMP_pressure;BME280_temperature;BME280_humidity;BME280_pressure;Samples;Min_cycle;Max_cycle;Signal;HPM_P1;HPM_P2
2022/04/02 00:01:23;;;;;;;3.60;2.75;;;0.60;99.90;;;;;;5072603;28;20399;-68
2022/04/02 00:03:49;;;;;;;6.78;2.30;;;0.50;99.90;;;;;;5072686;28;20054;-68
2022/04/02 00:06:15;;;;;;;3.10;2.10;;;0.50;99.90;;;;;;5070151;28;20053;-68
2022/04/02 00:08:41;;;;;;;4.00;2.50;;;0.70;99.90;;;;;;5071132;28;20499;-69
2022/04/02 00:11:07;;;;;;;2.40;1.98;;;0.70;99.90;;;;;;5069997;28;20044;-68
2022/04/02 00:13:34;;;;;;;3.95;2.30;;;0.40;99.90;;;;;;5072362;28;20045;-69
2022/04/02 00:16:00;;;;;;;3.50;2.28;;;0.40;99.90;;;;;;5070550;28;20123;-69
2022/04/02 00:18:26;;;;;;;3.08;2.78;;;0.40;99.90;;;;;;5071687;28;20132;-68
2022/04/02 00:20:52;;;;;;;3.10;2.22;;;0.50;99.90;;;;;;5072436;28;20562;-69
2022/04/02 00:23:39;;;;;;;2.63;1.90;;;0.30;99.90;;;;;;5070823;28;20128;-68
2022/04/02 00:26:07;;;;;;;4.78;2.40;;;0.30;99.90;;;;;;5069816;28;20055;-68
2022/04/02 00:28:34;;;;;;;3.00;2.30;;;0.20;99.90;;;;;;5072010;28;20040;-68
2022/04/02 00:31:00;;;;;;;4.18;2.67;;;0.20;99.90;;;;;;5070696;28;20048;-69
2022/04/02 00:33:25;;;;;;;5.18;2.63;;;0.20;99.90;;;;;;5071374;28;20513;-68
2022/04/02 00:35:51;;;;;;;4.10;2.65;;;0.20;99.90;;;;;;5070967;28;20474;-68
2022/04/02 00:38:16;;;;;;;3.95;2.10;;;0.20;99.90;;;;;;5070680;28;20052;-68
2022/04/02 00:40:42;;;;;;;3.25;2.50;;;0.20;99.90;;;;;;5069913;28;20139;-69
2022/04/02 00:43:31;;;;;;;2.58;1.92;;;0.20;99.90;;;;;;5070301;28;20083;-69
2022/04/02 00:45:59;;;;;;;8.75;2.17;;;0.20;99.90;;;;;;5071638;28;20040;-69
2022/04/02 00:48:29;;;;;;;3.72;2.20;;;0.30;99.90;;;;;;5092662;27;20061;-69
2022/04/02 00:50:57;;;;;;;3.40;2.22;;;0.30;99.90;;;;;;5097812;28;20047;-69
2022/04/02 00:53:25;;;;;;;4.32;2.05;;;0.30;99.90;;;;;;5093149;28;20470;-69
2022/04/02 00:55:51;;;;;;;4.05;2.30;;;0.30;99.90;;;;;;5093755;28;20040;-69
2022/04/02 00:58:17;;;;;;;5.95;1.65;;;0.70;99.90;;;;;;5112104;28;20044;-70
2022/04/02 01:00:43;;;;;;;2.83;2.22;;;0.30;99.90;;;;;;5093283;28;20055;-70
2022/04/02 01:03:11;;;;;;;3.88;1.77;;;0.40;99.90;;;;;;5112036;28;20085;-70
2022/04/02 01:05:37;;;;;;;2.58;1.92;;;0.40;99.90;;;;;;5112079;28;20059;-70
2022/04/02 01:08:05;;;;;;;2.47;2.00;;;0.50;99.90;;;;;;5092589;28;20039;-70
2022/04/02 01:10:31;;;;;;;2.17;1.88;;;0.40;99.90;;;;;;5112259;28;20035;-70
2022/04/02 01:12:57;;;;;;;3.00;2.25;;;0.50;99.90;;;;;;5093364;28;20059;-70
2022/04/02 01:15:22;;;;;;;4.20;2.22;;;0.50;99.90;;;;;;5093264;28;20035;-70
2022/04/02 01:17:48;;;;;;;9.57;2.08;;;0.50;99.90;;;;;;5093858;28;20188;-70
2022/04/02 01:20:15;;;;;;;3.08;1.52;;;0.50;99.90;;;;;;5093642;28;20081;-70
2022/04/02 01:22:40;;;;;;;2.53;1.83;;;0.50;99.90;;;;;;5092799;28;20052;-70
2022/04/02 01:25:06;;;;;;;3.30;1.60;;;0.50;99.90;;;;;;5111755;28;20043;-70
2022/04/02 01:27:32;;;;;;;3.03;2.03;;;0.50;99.90;;;;;;5112065;28;20558;-70
2022/04/02 01:29:58;;;;;;;3.60;2.55;;;0.40;99.90;;;;;;5111109;28;20043;-70
2022/04/02 01:32:23;;;;;;;2.78;1.75;;;0.70;99.90;;;;;;5093596;28;20138;-70
2022/04/02 01:34:49;;;;;;;2.63;1.80;;;0.40;99.90;;;;;;5111943;28;20043;-68
2022/04/02 01:37:16;;;;;;;5.28;1.88;;;0.40;99.90;;;;;;5110713;28;20047;-68
2022/04/02 01:39:42;;;;;;;2.25;1.60;;;0.30;99.90;;;;;;5112094;28;20052;-68
2022/04/02 01:42:08;;;;;;;3.17;2.20;;;0.30;99.90;;;;;;5093245;28;20484;-68
2022/04/02 01:44:34;;;;;;;1.98;1.42;;;0.20;99.90;;;;;;5111129;28;20079;-68
2022/04/02 01:47:00;;;;;;;3.00;1.70;;;0.20;99.90;;;;;;5093034;28;20539;-69
2022/04/02 01:49:26;;;;;;;2.47;1.83;;;0.40;99.90;;;;;;5111590;28;20444;-68
2022/04/02 01:51:52;;;;;;;4.78;2.15;;;0.20;99.90;;;;;;5110943;28;20039;-68
2022/04/02 01:54:19;;;;;;;4.22;1.92;;;0.20;99.90;;;;;;5093198;28;20067;-68
2022/04/02 01:56:45;;;;;;;3.35;1.58;;;0.10;99.90;;;;;;5092820;28;20129;-69
2022/04/02 01:59:11;;;;;;;4.07;2.08;;;0.10;99.90;;;;;;5111497;28;20051;-69
2022/04/02 02:01:37;;;;;;;4.88;2.28;;;0.10;99.90;;;;;;5113598;28;20047;-69
2022/04/02 02:04:02;;;;;;;2.42;1.77;;;0.10;99.90;;;;;;5114506;28;20122;-69
2022/04/02 02:06:28;;;;;;;2.75;1.98;;;0.10;99.90;;;;;;5115313;28;20055;-69
2022/04/02 02:08:54;;;;;;;3.35;1.80;;;0.10;99.90;;;;;;5115523;28;20032;-69
2022/04/02 02:11:21;;;;;;;3.78;2.03;;;0.30;99.90;;;;;;5114796;28;20546;-69
2022/04/02 02:13:46;;;;;;;2.80;1.55;;;0.00;99.90;;;;;;5097258;28;20051;-69
2022/04/02 02:16:12;;;;;;;3.08;2.08;;;0.00;99.90;;;;;;5115014;28;20180;-69
2022/04/02 02:18:38;;;;;;;3.35;1.80;;;-0.10;99.90;;;;;;5096545;28;20081;-69
2022/04/02 02:21:04;;;;;;;3.92;2.30;;;-0.10;99.90;;;;;;5114746;28;20040;-69
2022/04/02 02:23:32;;;;;;;5.78;2.47;;;0.00;99.90;;;;;;5096771;28;20054;-69
2022/04/02 02:25:57;;;;;;;2.88;1.80;;;-0.10;99.90;;;;;;5095631;28;20051;-70
2022/04/02 02:28:23;;;;;;;4.30;2.28;;;0.30;99.90;;;;;;5120296;27;20046;-70
2022/04/02 02:30:48;;;;;;;3.92;1.92;;;0.20;99.90;;;;;;5126443;27;20421;-69
2022/04/02 02:35:58;;;;;;;2.60;1.58;;;0.30;99.90;;;;;;5119708;27;20048;-69
2022/04/02 02:38:24;;;;;;;2.63;1.80;;;0.20;99.90;;;;;;5129060;27;20031;-69
2022/04/02 02:40:52;;;;;;;4.32;1.45;;;0.20;99.90;;;;;;5123042;27;20470;-69
2022/04/02 02:43:18;;;;;;;5.07;1.55;;;0.20;99.90;;;;;;5096021;28;20115;-69
2022/04/02 02:45:43;;;;;;;2.95;1.33;;;0.20;99.90;;;;;;5114564;28;20073;-69
2022/04/02 02:48:10;;;;;;;3.90;1.77;;;0.10;99.90;;;;;;5095556;28;20155;-69
2022/04/02 02:50:36;;;;;;;1.45;1.35;;;0.20;99.90;;;;;;5114818;28;20039;-69
2022/04/02 02:53:02;;;;;;;2.20;1.30;;;1.30;99.90;;;;;;5113639;28;20043;-69
2022/04/02 02:55:28;;;;;;;2.30;1.50;;;0.30;99.90;;;;;;5096523;28;20044;-70
2022/04/02 02:57:54;;;;;;;2.80;1.30;;;0.20;99.90;;;;;;5114450;28;20543;-69
2022/04/02 03:00:20;;;;;;;5.28;1.73;;;0.20;99.90;;;;;;5123485;27;20381;-69
2022/04/02 03:02:46;;;;;;;8.05;1.63;;;0.10;99.90;;;;;;5106940;27;20122;-69
2022/04/02 03:05:14;;;;;;;3.28;1.33;;;0.20;99.90;;;;;;5131982;27;20397;-69
2022/04/02 03:07:51;;;;;;;2.60;1.40;;;0.30;99.90;;;;;;5113793;28;20067;-70
2022/04/02 03:10:18;;;;;;;5.70;1.25;;;0.40;99.90;;;;;;5095887;28;20811;-69
2022/04/02 03:12:45;;;;;;;3.13;1.85;;;0.20;99.90;;;;;;5126492;27;20040;-69
2022/04/02 03:15:11;;;;;;;4.03;2.33;;;0.10;99.90;;;;;;5133880;27;20039;-69
2022/04/02 03:17:37;;;;;;;2.97;2.00;;;0.30;99.90;;;;;;5116620;27;20061;-69
2022/04/02 03:20:04;;;;;;;4.03;1.25;;;0.40;99.90;;;;;;5116033;27;20389;-69
2022/04/02 03:22:34;;;;;;;4.53;1.30;;;0.10;99.90;;;;;;5134180;27;20482;-69
2022/04/02 03:25:01;;;;;;;1.60;1.00;;;0.10;99.90;;;;;;5134292;27;20042;-69
2022/04/02 03:27:27;;;;;;;1.92;1.10;;;0.10;99.90;;;;;;5116048;27;20050;-69
2022/04/02 03:29:53;;;;;;;1.65;0.98;;;0.10;99.90;;;;;;5115240;27;20508;-69
2022/04/02 03:32:18;;;;;;;1.40;0.85;;;0.10;99.90;;;;;;5115777;27;20050;-69
2022/04/02 03:34:44;;;;;;;1.88;1.00;;;0.10;99.90;;;;;;5115930;27;20049;-69
2022/04/02 03:37:10;;;;;;;2.25;0.93;;;0.10;99.90;;;;;;5126060;27;20132;-69
2022/04/02 03:39:35;;;;;;;3.20;1.00;;;0.10;99.90;;;;;;5126638;27;20509;-69
2022/04/02 03:42:01;;;;;;;1.73;0.90;;;0.10;99.90;;;;;;5112807;28;20035;-69
2022/04/02 03:44:27;;;;;;;0.95;0.70;;;0.40;99.90;;;;;;5130991;27;20088;-69
2022/04/02 03:47:08;;;;;;;2.90;1.00;;;0.10;99.90;;;;;;5134193;27;20087;-69
2022/04/02 03:49:40;;;;;;;2.35;0.80;;;0.10;99.90;;;;;;5097572;28;20127;-69
2022/04/02 03:52:07;;;;;;;1.48;1.05;;;0.10;99.90;;;;;;5095174;28;20053;-69
2022/04/02 03:54:35;;;;;;;3.55;1.33;;;0.10;99.90;;;;;;5113340;28;20088;-69
2022/04/02 03:57:11;;;;;;;3.90;1.30;;;0.10;99.90;;;;;;5112238;28;20042;-69
2022/04/02 03:59:37;;;;;;;1.75;0.98;;;0.10;99.90;;;;;;5094760;28;20056;-69
2022/04/02 04:02:04;;;;;;;2.65;1.08;;;0.20;99.90;;;;;;5112948;28;20551;-70
2022/04/02 04:04:31;;;;;;;4.00;1.05;;;0.10;99.90;;;;;;5112409;28;20501;-69
2022/04/02 04:06:57;;;;;;;0.98;0.73;;;0.30;99.90;;;;;;5094493;28;20040;-69
2022/04/02 04:09:23;;;;;;;3.67;0.80;;;0.20;99.90;;;;;;5113057;28;20101;-69
2022/04/02 04:11:49;;;;;;;2.25;1.00;;;0.20;99.90;;;;;;5094110;28;20039;-69
2022/04/02 04:14:15;;;;;;;2.92;1.23;;;0.20;99.90;;;;;;5104704;27;20038;-69
2022/04/02 04:16:41;;;;;;;4.85;1.00;;;0.20;99.90;;;;;;5122172;27;20443;-69
2022/04/02 04:19:10;;;;;;;1.00;0.82;;;0.20;99.90;;;;;;5129830;27;20043;-69
2022/04/02 04:21:36;;;;;;;1.65;1.02;;;0.20;99.90;;;;;;5133385;27;20079;-69
2022/04/02 04:24:03;;;;;;;1.58;0.77;;;0.20;99.90;;;;;;5125147;27;20161;-69
2022/04/02 04:26:29;;;;;;;3.63;1.20;;;0.30;99.90;;;;;;5102664;28;20092;-69
2022/04/02 04:28:55;;;;;;;1.23;1.10;;;0.30;99.90;;;;;;5094303;28;20055;-69
2022/04/02 04:31:21;;;;;;;6.38;1.00;;;0.30;99.90;;;;;;5093882;28;20044;-69
2022/04/02 04:33:48;;;;;;;5.90;1.42;;;0.40;99.90;;;;;;5093610;28;20096;-69
2022/04/02 04:36:20;;;;;;;5.55;1.35;;;0.40;99.90;;;;;;5104106;28;20059;-69
2022/04/02 04:38:46;;;;;;;;;;;0.50;99.90;;;;;;5094278;28;20044;-69
2022/04/02 04:41:11;;;;;;;3.53;1.63;;;0.50;99.90;;;;;;5094041;28;19967;-69
2022/04/02 04:43:37;;;;;;;1.30;1.17;;;0.50;99.90;;;;;;5112623;28;20039;-69
2022/04/02 04:46:04;;;;;;;1.42;1.08;;;0.50;99.90;;;;;;5111471;28;20046;-69
2022/04/02 04:48:29;;;;;;;1.90;0.77;;;0.50;99.90;;;;;;5096608;27;20386;-69
2022/04/02 04:50:55;;;;;;;3.30;1.00;;;0.50;99.90;;;;;;5102496;27;20062;-70
2022/04/02 04:53:21;;;;;;;3.33;0.82;;;0.50;99.90;;;;;;5098491;28;20034;-69
2022/04/02 04:55:47;;;;;;;3.42;0.95;;;0.50;99.90;;;;;;5124334;27;20047;-69
2022/04/02 04:58:12;;;;;;;3.55;0.70;;;0.60;99.90;;;;;;5132650;27;20043;-69
2022/04/02 05:00:40;;;;;;;2.95;1.10;;;0.60;99.90;;;;;;5102673;28;20039;-69
2022/04/02 05:03:06;;;;;;;2.20;1.05;;;0.60;99.90;;;;;;5107740;27;20055;-69
2022/04/02 05:05:33;;;;;;;2.85;1.02;;;0.80;99.90;;;;;;5132526;28;20046;-69
2022/04/02 05:08:00;;;;;;;1.42;0.80;;;0.60;99.90;;;;;;5131776;27;20046;-69
2022/04/02 05:10:26;;;;;;;4.18;1.25;;;0.80;99.90;;;;;;5114427;28;20058;-70
2022/04/02 05:12:52;;;;;;;1.65;1.00;;;0.60;99.90;;;;;;5114513;28;20096;-70
2022/04/02 05:15:18;;;;;;;1.05;0.80;;;0.60;99.90;;;;;;5131709;28;20043;-69
2022/04/02 05:17:45;;;;;;;1.98;1.13;;;0.60;99.90;;;;;;5124039;28;20071;-69
2022/04/02 05:20:12;;;;;;;7.53;1.83;;;0.60;99.90;;;;;;5103242;28;20046;-69
2022/04/02 05:22:38;;;;;;;0.93;0.70;;;0.80;99.90;;;;;;5102135;28;20078;-69
2022/04/02 05:25:04;;;;;;;3.88;0.95;;;0.60;99.90;;;;;;5113594;28;20039;-69
2022/04/02 05:27:30;;;;;;;3.58;1.10;;;0.50;99.90;;;;;;5113820;28;20055;-69
2022/04/02 05:29:56;;;;;;;2.33;1.10;;;0.50;99.90;;;;;;5131937;28;20043;-69
2022/04/02 05:32:21;;;;;;;2.35;1.02;;;0.70;99.90;;;;;;5132503;28;20038;-69
2022/04/02 05:34:47;;;;;;;2.45;0.98;;;0.70;99.90;;;;;;5131523;28;20512;-69
2022/04/02 05:37:14;;;;;;;5.85;1.02;;;0.60;99.90;;;;;;5126313;27;20063;-69
2022/04/02 05:39:41;;;;;;;1.02;0.93;;;0.40;99.90;;;;;;5122448;27;20040;-69
2022/04/02 05:42:08;;;;;;;2.20;1.35;;;0.60;99.90;;;;;;5111232;27;20489;-69
2022/04/02 05:44:33;;;;;;;2.92;1.00;;;0.50;99.90;;;;;;5118328;27;20452;-69
2022/04/02 05:46:59;;;;;;;2.35;0.93;;;0.80;99.90;;;;;;5117426;27;20134;-69
2022/04/02 05:49:24;;;;;;;1.67;1.25;;;0.60;99.90;;;;;;5117052;27;20059;-69
2022/04/02 05:51:50;;;;;;;2.58;1.27;;;0.60;99.90;;;;;;5118191;27;20058;-69
2022/04/02 05:54:16;;;;;;;1.77;1.00;;;0.60;99.90;;;;;;5136001;27;20051;-69
2022/04/02 05:56:42;;;;;;;1.67;1.48;;;0.60;99.90;;;;;;5135749;27;20047;-69
2022/04/02 05:59:08;;;;;;;2.45;1.15;;;0.70;99.90;;;;;;5135929;27;20047;-69
2022/04/02 06:01:37;;;;;;;3.25;1.33;;;0.80;99.90;;;;;;5117736;27;20382;-69
2022/04/02 06:04:03;;;;;;;2.97;1.35;;;0.80;99.90;;;;;;5128783;27;20501;-70
2022/04/02 06:06:30;;;;;;;6.53;1.17;;;0.90;99.90;;;;;;5100150;28;20047;-69
2022/04/02 06:08:56;;;;;;;0.95;0.82;;;1.00;99.90;;;;;;5124603;27;20070;-69
2022/04/02 06:11:21;;;;;;;3.65;1.17;;;1.00;99.90;;;;;;5116555;27;20054;-69
2022/04/02 06:13:47;;;;;;;9.52;1.75;;;1.00;99.90;;;;;;5114538;28;20065;-69
2022/04/02 06:16:13;;;;;;;4.25;1.23;;;1.20;99.90;;;;;;5115067;28;20047;-69
2022/04/02 06:18:38;;;;;;;3.30;1.10;;;1.10;99.90;;;;;;5096073;28;20400;-69
2022/04/02 06:21:04;;;;;;;2.97;1.40;;;1.10;99.90;;;;;;5096489;28;20039;-69
2022/04/02 06:23:31;;;;;;;1.70;1.15;;;1.10;99.90;;;;;;5096926;28;20043;-69
2022/04/02 06:25:56;;;;;;;2.70;1.25;;;1.10;99.90;;;;;;5114006;28;20108;-70
2022/04/02 06:28:23;;;;;;;3.47;1.48;;;1.20;99.90;;;;;;5115195;28;20482;-69
2022/04/02 06:30:49;;;;;;;3.72;1.70;;;1.50;99.90;;;;;;5096554;28;20067;-69
2022/04/02 06:33:14;;;;;;;1.40;0.93;;;0.10;99.90;;;;;;5114385;28;20062;-69
2022/04/02 06:35:40;;;;;;;0.98;0.80;;;1.30;99.90;;;;;;5106923;27;20486;-69
2022/04/02 06:38:06;;;;;;;1.73;1.10;;;1.30;99.90;;;;;;5095088;28;20109;-69
2022/04/02 06:40:32;;;;;;;2.17;1.20;;;1.30;99.90;;;;;;5114989;28;20040;-69
2022/04/02 06:42:58;;;;;;;2.47;1.15;;;1.40;99.90;;;;;;5114435;28;20040;-69
2022/04/02 06:45:25;;;;;;;2.70;1.50;;;1.40;99.90;;;;;;5112050;28;20062;-69
2022/04/02 06:47:50;;;;;;;2.33;1.42;;;1.50;99.90;;;;;;5094766;28;20048;-70
2022/04/02 06:50:16;;;;;;;1.50;1.02;;;1.60;99.90;;;;;;5100979;27;20055;-70
2022/04/02 06:52:43;;;;;;;1.33;1.10;;;1.60;99.90;;;;;;5097183;28;20130;-69
2022/04/02 06:55:13;;;;;;;1.67;1.45;;;1.70;99.90;;;;;;5091494;28;20054;-69
2022/04/02 06:57:51;;;;;;;1.98;1.17;;;1.80;99.90;;;;;;5075116;28;20126;-69
2022/04/02 07:00:17;;;;;;;4.43;1.20;;;1.90;99.90;;;;;;5074592;28;20070;-69
2022/04/02 07:02:43;;;;;;;2.25;1.23;;;1.90;99.90;;;;;;5107013;27;20040;-69
2022/04/02 07:05:09;;;;;;;2.90;1.90;;;2.00;99.90;;;;;;5097457;28;20051;-69
2022/04/02 07:07:34;;;;;;;6.82;1.20;;;2.10;99.90;;;;;;5074521;28;20097;-70
2022/04/02 07:10:01;;;;;;;3.00;1.25;;;2.10;99.90;;;;;;5080200;27;20139;-69
2022/04/02 07:12:27;;;;;;;1.30;1.20;;;2.30;99.90;;;;;;5100320;28;20096;-69
2022/04/02 07:14:53;;;;;;;7.65;2.00;;;2.10;99.90;;;;;;5112675;28;20456;-69
2022/04/02 07:17:19;;;;;;;2.28;1.38;;;2.20;99.90;;;;;;5085739;28;20364;-70
2022/04/02 07:19:47;;;;;;;4.75;1.52;;;2.20;99.90;;;;;;5090412;28;20054;-70
2022/04/02 07:22:14;;;;;;;3.10;1.50;;;2.20;99.90;;;;;;5105977;28;20039;-69
2022/04/02 07:24:40;;;;;;;6.05;1.73;;;2.20;99.90;;;;;;5096313;28;20092;-70
2022/04/02 07:27:07;;;;;;;2.58;1.65;;;2.50;99.90;;;;;;5112786;28;20040;-69
2022/04/02 07:29:33;;;;;;;2.70;1.65;;;2.30;99.90;;;;;;5095643;28;20044;-71
2022/04/02 07:31:59;;;;;;;3.40;1.60;;;2.40;99.90;;;;;;5105238;27;20039;-69
2022/04/02 07:34:26;;;;;;;2.75;1.45;;;2.40;99.90;;;;;;5094610;28;20841;-70
2022/04/02 07:36:57;;;;;;;3.22;1.40;;;2.30;99.90;;;;;;5095682;28;20047;-70
2022/04/02 07:39:45;;;;;;;2.50;1.38;;;2.20;99.90;;;;;;5114135;28;20043;-70
2022/04/02 07:42:35;;;;;;;4.75;1.35;;;2.10;99.90;;;;;;5113318;28;20126;-69
2022/04/02 07:45:05;;;;;;;3.15;1.85;;;2.00;99.90;;;;;;5116153;27;20039;-68
2022/04/02 07:47:33;;;;;;;3.78;1.17;;;2.10;99.90;;;;;;5104328;28;20086;-69
2022/04/02 07:50:03;;;;;;;1.30;1.15;;;2.00;99.90;;;;;;5113320;28;20051;-70
2022/04/02 07:52:29;;;;;;;2.45;1.40;;;2.00;99.90;;;;;;5079197;28;20051;-69
2022/04/02 07:54:57;;;;;;;2.50;1.48;;;2.00;99.90;;;;;;5075714;28;20040;-69
2022/04/02 07:57:49;;;;;;;3.00;1.88;;;2.20;99.90;;;;;;5093378;28;20105;-70
2022/04/02 08:00:17;;;;;;;1.52;1.13;;;2.00;99.90;;;;;;5093312;28;20083;-70
2022/04/02 08:02:46;;;;;;;4.00;1.25;;;2.10;99.90;;;;;;5094971;27;20084;-71
2022/04/02 08:05:14;;;;;;;1.63;1.20;;;2.20;99.90;;;;;;5134308;27;20039;-72
2022/04/02 08:07:43;;;;;;;4.63;1.63;;;2.30;99.90;;;;;;5134259;27;20075;-71
2022/04/02 08:10:11;;;;;;;4.45;1.42;;;2.50;99.90;;;;;;5133470;27;20074;-71
2022/04/02 08:12:41;;;;;;;3.47;1.10;;;2.60;99.90;;;;;;5134708;27;20050;-72
2022/04/02 08:15:18;;;;;;;2.60;1.23;;;2.90;99.90;;;;;;5132903;27;20050;-72
2022/04/02 08:17:52;;;;;;;2.25;1.50;;;3.10;99.90;;;;;;5106740;27;20078;-71
2022/04/02 08:20:17;;;;;;;2.92;1.17;;;3.30;99.90;;;;;;5123368;27;20047;-70
2022/04/02 08:22:44;;;;;;;1.92;1.48;;;3.40;99.90;;;;;;5106636;28;20051;-67
2022/04/02 08:25:11;;;;;;;2.58;1.20;;;3.50;99.90;;;;;;5112424;28;20474;-69
2022/04/02 08:27:59;;;;;;;1.85;0.90;;;3.50;99.90;;;;;;5105538;28;20036;-70
2022/04/02 08:30:32;;;;;;;3.13;1.08;;;3.60;99.90;;;;;;5108328;27;20103;-71
2022/04/02 08:33:24;;;;;;;3.13;1.02;;;3.80;99.90;;;;;;5133108;27;20065;-71
2022/04/02 08:36:16;;;;;;;6.05;2.17;;;3.90;99.90;;;;;;5134113;27;20039;-70
2022/04/02 08:38:54;;;;;;;3.03;1.23;;;4.00;99.90;;;;;;5114307;27;20084;-70
2022/04/02 08:42:01;;;;;;;2.30;1.00;;;4.10;99.90;;;;;;5115398;27;20054;-70
2022/04/02 08:44:58;;;;;;;3.15;0.70;;;4.20;99.90;;;;;;5115291;27;20075;-70
2022/04/02 08:47:49;;;;;;;1.73;1.10;;;4.40;99.90;;;;;;5099534;28;20439;-70
2022/04/02 08:50:16;;;;;;;2.88;1.42;;;4.50;99.90;;;;;;5112949;28;20486;-70
2022/04/02 08:52:44;;;;;;;2.50;0.90;;;4.60;99.90;;;;;;5107166;28;20048;-70
2022/04/02 08:55:18;;;;;;;3.03;1.23;;;4.40;99.90;;;;;;5092169;28;20087;-70
2022/04/02 08:57:53;;;;;;;1.73;1.10;;;4.30;99.90;;;;;;5074695;28;20513;-71
2022/04/02 09:00:28;;;;;;;0.80;0.80;;;4.20;99.90;;;;;;5091848;28;20044;-70
2022/04/02 09:02:53;;;;;;;8.88;1.67;;;4.10;99.90;;;;;;5088592;28;20063;-71
2022/04/02 09:05:29;;;;;;;1.25;0.90;;;4.10;99.90;;;;;;5087666;28;20418;-71
2022/04/02 09:08:13;;;;;;;5.15;1.50;;;4.10;99.90;;;;;;5093988;28;20043;-72
2022/04/02 09:10:53;;;;;;;4.20;1.10;;;4.20;99.90;;;;;;5090149;28;20059;-71
2022/04/02 09:13:32;;;;;;;0.93;0.85;;;4.40;99.90;;;;;;5091360;28;20063;-71
2022/04/02 09:16:04;;;;;;;3.83;1.05;;;4.70;99.90;;;;;;5074144;28;20039;-71
2022/04/02 09:18:48;;;;;;;3.05;1.10;;;5.10;99.90;;;;;;5092690;28;20086;-71
2022/04/02 09:21:52;;;;;;;1.00;0.60;;;5.20;99.90;;;;;;5073884;28;21043;-71
2022/04/02 09:24:37;;;;;;;1.83;0.80;;;5.20;99.90;;;;;;5074483;28;20138;-71
2022/04/02 09:27:12;;;;;;;3.15;1.00;;;5.00;99.90;;;;;;5073291;28;20052;-71
2022/04/02 09:29:43;;;;;;;2.17;0.90;;;4.90;99.90;;;;;;5092010;28;20578;-71
2022/04/02 09:32:12;;;;;;;2.90;0.85;;;4.80;99.90;;;;;;5092063;28;20044;-71
2022/04/02 09:35:05;;;;;;;1.30;0.80;;;4.90;99.90;;;;;;5091956;28;20048;-71
2022/04/02 09:37:46;;;;;;;3.30;0.93;;;5.20;99.90;;;;;;5074470;28;20048;-71
2022/04/02 09:40:18;;;;;;;1.88;0.65;;;5.40;99.90;;;;;;5089962;28;20043;-70
2022/04/02 09:42:46;;;;;;;2.95;1.02;;;5.40;96.90;;;;;;5119374;28;20039;-67
2022/04/02 09:45:20;;;;;;;1.35;1.25;;;5.30;98.40;;;;;;5096557;28;20076;-70
2022/04/02 09:47:48;;;;;;;1.40;0.85;;;5.30;99.90;;;;;;5130934;28;20118;-70
2022/04/02 09:50:26;;;;;;;4.28;0.77;;;5.40;98.30;;;;;;5120760;28;20154;-71
2022/04/02 09:53:08;;;;;;;2.78;0.60;;;5.40;96.40;;;;;;5074331;28;20178;-69
2022/04/02 09:55:40;;;;;;;1.95;1.02;;;5.30;96.00;;;;;;5083800;28;20046;-70
2022/04/02 09:58:22;;;;;;;3.40;0.73;;;5.30;95.20;;;;;;5117603;28;20131;-72
2022/04/02 10:00:52;;;;;;;6.80;1.00;;;5.30;94.50;;;;;;5113732;28;20031;-71
2022/04/02 10:03:57;;;;;;;1.98;0.88;;;5.20;94.50;;;;;;5104620;28;20059;-71
2022/04/02 10:06:28;;;;;;;2.90;0.85;;;5.00;95.70;;;;;;5114908;28;20405;-71
2022/04/02 10:09:11;;;;;;;2.10;0.95;;;4.90;96.70;;;;;;5132229;28;20047;-72
2022/04/02 10:11:45;;;;;;;4.43;0.90;;;5.00;97.80;;;;;;5114954;28;20047;-72
2022/04/02 10:14:11;;;;;;;3.80;1.25;;;5.10;98.80;;;;;;5133028;28;20039;-71
2022/04/02 10:16:39;;;;;;;4.47;1.00;;;5.20;96.80;;;;;;5132334;28;20039;-72
2022/04/02 10:19:08;;;;;;;0.80;0.70;;;5.20;95.20;;;;;;5129937;28;20093;-72
2022/04/02 10:21:37;;;;;;;4.00;0.70;;;5.10;96.40;;;;;;5120319;27;20035;-71
2022/04/02 10:24:20;;;;;;;5.35;0.93;;;5.10;97.00;;;;;;5117403;27;20378;-71
2022/04/02 10:26:52;;;;;;;4.03;1.05;;;5.10;97.40;;;;;;5118144;27;20047;-71
2022/04/02 10:29:23;;;;;;;;;;;5.10;96.00;;;;;;5136671;27;20050;-73
2022/04/02 10:31:59;;;;;;;4.53;1.30;;;5.00;96.10;;;;;;5110688;27;19923;-71
2022/04/02 10:34:39;;;;;;;2.25;0.85;;;5.20;95.10;;;;;;5079836;28;20078;-72
2022/04/02 10:37:10;;;;;;;2.47;0.60;;;5.50;93.20;;;;;;5094456;28;20047;-73
2022/04/02 10:39:53;;;;;;;5.43;0.70;;;5.70;92.90;;;;;;5095427;28;20051;-72
2022/04/02 10:42:22;;;;;;;3.35;0.85;;;5.60;92.20;;;;;;5077203;28;20048;-70
2022/04/02 10:45:02;;;;;;;1.60;0.88;;;5.60;91.40;;;;;;5094581;28;20422;-72
2022/04/02 10:47:30;;;;;;;1.20;0.70;;;5.50;92.20;;;;;;5083296;27;20413;-73
2022/04/02 10:50:04;;;;;;;2.85;1.00;;;5.60;92.70;;;;;;5100255;27;20473;-71
2022/04/02 10:52:31;;;;;;;3.70;1.38;;;5.90;93.30;;;;;;5102846;28;20119;-73
2022/04/02 10:54:57;;;;;;;1.33;1.00;;;6.10;92.90;;;;;;5100186;28;20044;-73
2022/04/02 10:57:27;;;;;;;3.65;1.45;;;6.40;93.90;;;;;;5077161;28;20486;-73
2022/04/02 11:00:04;;;;;;;3.58;1.25;;;6.70;91.80;;;;;;5058942;28;20071;-71
2022/04/02 11:02:58;;;;;;;3.92;1.10;;;6.70;91.20;;;;;;5076602;28;20075;-72
2022/04/02 11:05:25;;;;;;;3.28;0.90;;;6.70;91.00;;;;;;5093542;28;20052;-71
2022/04/02 11:08:01;;;;;;;2.80;0.90;;;6.60;90.00;;;;;;5076532;28;20127;-72
2022/04/02 11:10:27;;;;;;;2.22;0.95;;;6.50;90.10;;;;;;5076415;28;20482;-72
2022/04/02 11:13:00;;;;;;;3.80;0.80;;;6.60;91.80;;;;;;5075213;28;20051;-72
2022/04/02 11:15:31;;;;;;;3.45;0.93;;;6.80;90.40;;;;;;5094522;28;20083;-72
2022/04/02 11:17:58;;;;;;;2.60;1.00;;;6.80;91.40;;;;;;5088062;28;20502;-72
2022/04/02 11:20:24;;;;;;;0.98;0.85;;;7.00;91.10;;;;;;5078972;28;20215;-73
2022/04/02 11:22:59;;;;;;;1.92;0.85;;;7.10;89.70;;;;;;5082182;28;20444;-72
2022/04/02 11:25:28;;;;;;;1.85;0.88;;;7.10;88.70;;;;;;5081989;28;20044;-72
2022/04/02 11:28:14;;;;;;;0.90;0.73;;;7.10;83.00;;;;;;5094805;28;20056;-72
2022/04/02 11:30:49;;;;;;;3.75;1.00;;;6.80;80.00;;;;;;5086067;28;20043;-71
2022/04/02 11:33:23;;;;;;;3.47;0.90;;;6.50;78.30;;;;;;5094097;28;20406;-72
2022/04/02 11:35:58;;;;;;;1.60;1.02;;;6.40;79.90;;;;;;5094999;28;20072;-71
2022/04/02 11:38:35;;;;;;;1.70;1.00;;;6.50;77.90;;;;;;5095824;28;20104;-71
2022/04/02 11:41:22;;;;;;;3.30;0.95;;;6.50;79.90;;;;;;5112999;28;20600;-71
2022/04/02 11:43:54;;;;;;;2.38;1.02;;;6.60;78.70;;;;;;5096360;28;20046;-71
2022/04/02 11:46:21;;;;;;;4.35;0.80;;;6.70;78.60;;;;;;5096115;28;20100;-71
2022/04/02 11:48:59;;;;;;;1.13;0.93;;;6.90;77.90;;;;;;5094572;28;20524;-71
2022/04/02 11:51:30;;;;;;;2.78;0.95;;;7.00;76.70;;;;;;5114277;28;20047;-71
2022/04/02 11:54:11;;;;;;;2.63;1.00;;;6.90;76.00;;;;;;5113806;28;20092;-71
2022/04/02 11:56:46;;;;;;;3.80;1.60;;;6.70;75.50;;;;;;5101279;27;20059;-71
2022/04/02 11:59:17;;;;;;;3.13;0.88;;;6.50;75.40;;;;;;5116107;27;20100;-71
2022/04/02 12:01:51;;;;;;;1.63;1.00;;;6.30;75.00;;;;;;5115709;27;20071;-71
2022/04/02 12:04:22;;;;;;;2.30;0.80;;;6.30;76.80;;;;;;5111711;27;20039;-71
2022/04/02 12:06:50;;;;;;;1.40;1.02;;;6.40;75.70;;;;;;5090171;28;20081;-71
2022/04/02 12:09:22;;;;;;;0.98;0.65;;;6.60;75.10;;;;;;5106911;28;20086;-71
2022/04/02 12:12:15;;;;;;;2.75;0.85;;;6.70;73.10;;;;;;5090147;28;20047;-71
2022/04/02 12:14:41;;;;;;;;;;;6.60;72.00;;;;;;5092317;28;20056;-71
2022/04/02 12:17:10;;;;;;;3.55;0.70;;;6.40;73.60;;;;;;5092681;28;19974;-69
2022/04/02 12:19:40;;;;;;;0.85;0.60;;;6.30;74.20;;;;;;5087527;28;20101;-71
2022/04/02 12:22:31;;;;;;;2.33;0.60;;;6.30;73.00;;;;;;5095445;28;20043;-72
2022/04/02 12:24:59;;;;;;;5.28;0.95;;;6.20;72.80;;;;;;5113371;28;20478;-71
2022/04/02 12:27:30;;;;;;;5.18;0.98;;;6.10;72.50;;;;;;5112113;28;20040;-72
2022/04/02 12:29:58;;;;;;;3.47;0.73;;;6.10;73.70;;;;;;5097263;28;20036;-68
2022/04/02 12:32:34;;;;;;;1.92;0.95;;;6.20;73.00;;;;;;5093393;28;20066;-68
2022/04/02 12:35:09;;;;;;;2.28;0.90;;;6.40;72.70;;;;;;5093084;28;20036;-68
2022/04/02 12:37:46;;;;;;;2.83;0.88;;;6.40;72.00;;;;;;5074117;28;20399;-68
2022/04/02 12:40:20;;;;;;;3.25;0.80;;;6.40;72.90;;;;;;5076519;28;20075;-68
2022/04/02 12:42:47;;;;;;;4.32;2.35;;;6.50;72.30;;;;;;5104215;27;20069;-66
2022/04/02 12:45:16;;;;;;;7.88;3.10;;;6.50;71.70;;;;;;5103925;28;20043;-67
2022/04/02 12:47:58;;;;;;;1.58;0.88;;;6.40;72.50;;;;;;5105644;27;20451;-67
2022/04/02 12:50:24;;;;;;;4.38;1.10;;;6.30;70.50;;;;;;5122772;27;20051;-67
2022/04/02 12:52:50;;;;;;;2.85;1.20;;;6.20;71.20;;;;;;5133109;27;20031;-67
2022/04/02 12:55:25;;;;;;;5.07;1.88;;;6.20;71.80;;;;;;5133528;27;20050;-67
2022/04/02 12:58:13;;;;;;;2.05;0.80;;;6.50;69.10;;;;;;5114356;27;20058;-67
2022/04/02 13:00:43;;;;;;;2.17;0.80;;;6.60;70.20;;;;;;5113198;28;20127;-67
2022/04/02 13:03:10;;;;;;;2.42;0.77;;;6.70;68.30;;;;;;5094946;28;20040;-67
2022/04/02 13:05:48;;;;;;;5.63;0.90;;;6.80;67.50;;;;;;5112103;28;20508;-68
2022/04/02 13:08:17;;;;;;;3.13;1.02;;;7.00;67.40;;;;;;5112852;28;20866;-67
2022/04/02 13:10:44;;;;;;;1.88;0.73;;;7.20;67.90;;;;;;5094457;28;20067;-68
2022/04/02 13:13:13;;;;;;;0.90;0.80;;;7.30;67.20;;;;;;5073831;28;20044;-68
2022/04/02 13:15:39;;;;;;;10.63;0.98;;;7.40;67.00;;;;;;5074567;28;20471;-68